Time;durP1;ratioP1;P1;durP2;ratioP2;P2;SDS_P1;SDS_P2;PMS_P1;PMS_P2;Temp;Humidity;BMP_temperature;BMP_pressure;BME280_temperature;BME280_humidity;BME280_pressure;Samples;Min_cycle;Max_cycle;Signal;HPM_P1;HPM_P2
2021/03/21 00:00:19;;;;;;;;;;;;;;;19.74;35.75;101091.78;5064150;28;1018;-46
2021/03/21 00:02:44;;;;;;;;;;;;;;;20.49;34.25;101098.03;5054973;28;747;-45
2021/03/21 00:05:10;;;;;;;;;;;;;;;20.12;35.29;101097.56;5055688;28;752;-48
2021/03/21 00:07:35;;;;;;;;;;;;;;;20.05;35.12;101097.09;5056055;28;772;-50
2021/03/21 00:10:02;;;;;;;;;;;;;;;19.39;36.58;101085.41;5064594;28;993;-46
2021/03/21 00:12:28;;;;;;;;;;;;;;;19.37;36.65;101092.31;5058195;28;1910;-46
2021/03/21 00:14:53;;;;;;;;;;;;;;;20.27;34.79;101084.72;5057873;28;1600;-52
2021/03/21 00:17:19;;;;;;;;;;;;;;;20.06;35.16;101086.84;5075277;28;763;-49
2021/03/21 00:19:44;;;;;;;;;;;;;;;19.78;35.57;101087.34;5076512;28;839;-46
2021/03/21 00:22:10;;;;;;;;;;;;;;;19.49;36.38;101085.31;5079254;28;775;-48
2021/03/21 00:24:35;;;;;;;;;;;;;;;19.12;37.33;101083.06;5079177;28;756;-49
2021/03/21 00:27:00;;;;;;;;;;;;;;;20.08;35.26;101073.59;5079920;28;775;-47
2021/03/21 00:29:26;;;;;;;;;;;;;;;20.28;34.69;101070.63;5074124;28;931;-46
2021/03/21 00:31:51;;;;;;;;;;;;;;;19.90;35.36;101075.13;5059040;28;1174;-46
2021/03/21 00:34:17;;;;;;;;;;;;;;;19.73;35.69;101079.09;5059146;28;1917;-47
2021/03/21 00:36:42;;;;;;;;;;;;;;;19.34;36.52;101077.16;5059382;28;851;-46
2021/03/21 00:39:08;;;;;;;;;;;;;;;19.56;36.08;101070.38;5058847;28;752;-48
2021/03/21 00:41:33;;;;;;;;;;;;;;;20.38;34.58;101071.66;5059424;28;867;-47
2021/03/21 00:43:59;;;;;;;;;;;;;;;20.14;34.98;101067.72;5059871;28;960;-48
2021/03/21 00:46:24;;;;;;;;;;;;;;;19.96;35.18;101060.16;5078325;28;882;-46
2021/03/21 00:48:50;;;;;;;;;;;;;;;19.57;36.01;101069.28;5079017;28;871;-53
2021/03/21 00:51:16;;;;;;;;;;;;;;;19.17;37.09;101072.00;5078967;28;723;-48
2021/03/21 00:53:41;;;;;;;;;;;;;;;19.83;35.61;101083.75;5060627;28;1964;-47
2021/03/21 00:56:07;;;;;;;;;;;;;;;20.49;34.65;101095.28;5079188;28;831;-47
2021/03/21 00:58:33;;;;;;;;;;;;;;;20.16;35.22;101084.00;5078701;28;752;-47
2021/03/21 01:00:59;;;;;;;;;;;;;;;19.87;35.42;101081.25;5042630;28;978;-48
2021/03/21 01:03:25;;;;;;;;;;;;;;;19.45;36.15;101089.75;5058998;28;752;-56
2021/03/21 01:05:53;;;;;;;;;;;;;;;19.10;37.04;101088.84;5058508;28;796;-45
2021/03/21 01:08:23;;;;;;;;;;;;;;;19.60;36.05;101082.50;5058424;28;832;-45
2021/03/21 01:10:49;;;;;;;;;;;;;;;20.39;34.59;101087.91;5074362;28;1120;-56
2021/03/21 01:13:15;;;;;;;;;;;;;;;19.89;35.39;101081.75;5078734;28;1901;-47
2021/03/21 01:15:40;;;;;;;;;;;;;;;19.88;35.41;101074.59;5062768;28;1014;-56
2021/03/21 01:18:06;;;;;;;;;;;;;;;19.52;36.05;101088.59;5058623;28;791;-54
2021/03/21 01:20:31;;;;;;;;;;;;;;;19.15;37.19;101102.63;5058284;28;847;-46
2021/03/21 01:22:57;;;;;;;;;;;;;;;20.04;35.16;101095.44;5057798;28;835;-47
2021/03/21 01:25:23;;;;;;;;;;;;;;;20.26;34.68;101089.44;5058410;28;808;-45
2021/03/21 01:27:49;;;;;;;;;;;;;;;19.85;35.34;101081.50;5040639;28;851;-48
2021/03/21 01:30:14;;;;;;;;;;;;;;;19.65;35.98;101079.72;5068837;28;1026;-46
2021/03/21 01:32:40;;;;;;;;;;;;;;;19.23;36.84;101072.81;5076646;28;1910;-48
2021/03/21 01:35:05;;;;;;;;;;;;;;;19.82;35.63;101063.63;5078244;28;827;-57
2021/03/21 01:37:31;;;;;;;;;;;;;;;20.38;34.36;101050.38;5077821;28;842;-56
2021/03/21 01:39:56;;;;;;;;;;;;;;;19.81;35.89;101042.63;5078378;28;867;-45
2021/03/21 01:42:22;;;;;;;;;;;;;;;19.75;35.79;101029.94;5078411;28;782;-54
2021/03/21 01:44:47;;;;;;;;;;;;;;;19.39;36.26;101021.97;5069641;28;1010;-46
2021/03/21 01:47:31;;;;;;;;;;;;;;;19.54;36.14;101029.28;5057817;28;831;-61
2021/03/21 01:49:57;;;;;;;;;;;;;;;20.44;34.58;101024.34;5057964;28;728;-46
2021/03/21 01:52:26;;;;;;;;;;;;;;;20.04;35.28;101034.69;5039778;28;871;-47
2021/03/21 01:54:52;;;;;;;;;;;;;;;19.98;35.25;101030.34;5040079;28;1906;-47
2021/03/21 01:57:17;;;;;;;;;;;;;;;19.39;36.39;101027.50;5040393;28;779;-48
2021/03/21 01:59:43;;;;;;;;;;;;;;;19.24;36.81;101022.09;5064152;28;1006;-44
2021/03/21 02:02:10;;;;;;;;;;;;;;;20.10;34.96;101039.03;5059788;28;775;-50
2021/03/21 02:04:36;;;;;;;;;;;;;;;20.33;34.71;101042.16;5077812;28;885;-44
2021/03/21 02:07:10;;;;;;;;;;;;;;;19.89;35.28;101038.41;5077212;28;800;-44
2021/03/21 02:10:02;;;;;;;;;;;;;;;19.74;35.71;101053.16;5071350;28;1100;-48
2021/03/21 02:12:46;;;;;;;;;;;;;;;19.33;36.46;101036.91;5054480;28;958;-55
2021/03/21 02:15:15;;;;;;;;;;;;;;;19.66;35.86;101056.53;5067473;28;1015;-46
2021/03/21 02:17:59;;;;;;;;;;;;;;;20.44;34.26;101038.16;5077752;28;779;-55
2021/03/21 02:20:24;;;;;;;;;;;;;;;19.93;35.15;101031.22;5077208;28;819;-53
2021/03/21 02:23:10;;;;;;;;;;;;;;;19.74;35.47;101006.25;5076678;28;838;-56
2021/03/21 02:25:47;;;;;;;;;;;;;;;19.19;36.70;101009.13;5077030;28;1272;-47
2021/03/21 02:28:16;;;;;;;;;;;;;;;20.06;35.09;100987.47;5077328;28;732;-53
2021/03/21 02:30:42;;;;;;;;;;;;;;;20.49;34.25;100993.88;5061129;28;966;-45
2021/03/21 02:33:12;;;;;;;;;;;;;;;19.90;35.25;101012.47;5038921;28;1911;-51
2021/03/21 02:35:57;;;;;;;;;;;;;;;19.78;35.52;101015.59;5022627;28;807;-50
2021/03/21 02:38:25;;;;;;;;;;;;;;;19.15;36.72;101006.16;5057527;28;827;-48
2021/03/21 02:40:52;;;;;;;;;;;;;;;19.99;35.12;101026.47;5056979;28;803;-50
2021/03/21 02:43:22;;;;;;;;;;;;;;;20.58;33.94;101010.66;5037561;28;905;-46
2021/03/21 02:45:49;;;;;;;;;;;;;;;20.08;35.17;101041.28;5054482;28;948;-48
2021/03/21 02:48:20;;;;;;;;;;;;;;;19.86;35.57;101032.66;5058974;28;752;-48
2021/03/21 02:51:15;;;;;;;;;;;;;;;19.36;36.37;101030.00;5058538;28;886;-56
2021/03/21 02:53:48;;;;;;;;;;;;;;;19.56;36.28;101029.00;5068233;28;1906;-46
2021/03/21 02:56:18;;;;;;;;;;;;;;;20.42;34.47;101034.03;5058806;28;847;-45
2021/03/21 02:58:45;;;;;;;;;;;;;;;20.14;34.83;101029.06;5075964;28;810;-46
2021/03/21 03:01:12;;;;;;;;;;;;;;;20.03;35.04;101022.00;5057165;28;1003;-46
2021/03/21 03:03:39;;;;;;;;;;;;;;;19.64;35.80;100998.03;5039091;28;852;-46
2021/03/21 03:06:06;;;;;;;;;;;;;;;19.26;36.81;101047.41;5038499;28;729;-46
2021/03/21 03:08:40;;;;;;;;;;;;;;;20.16;34.92;101018.56;5038667;28;863;-49
2021/03/21 03:11:16;;;;;;;;;;;;;;;20.24;34.64;101030.09;5066127;28;1104;-47
2021/03/21 03:13:43;;;;;;;;;;;;;;;19.86;35.50;101027.16;5054327;28;1910;-45
2021/03/21 03:16:28;;;;;;;;;;;;;;;19.65;35.93;101011.53;5039107;28;951;-46
2021/03/21 03:18:57;;;;;;;;;;;;;;;19.18;36.80;101039.75;5025660;28;1163;-48
2021/03/21 03:21:27;;;;;;;;;;;;;;;19.77;35.62;101049.81;5055696;28;744;-45
2021/03/21 03:23:58;;;;;;;;;;;;;;;20.54;34.16;101039.13;5038535;28;791;-55
2021/03/21 03:26:28;;;;;;;;;;;;;;;21.06;33.43;101067.03;5038817;28;807;-45
2021/03/21 03:29:14;;;;;;;;;;;;;;;20.47;34.45;101047.81;5038551;28;987;-57
2021/03/21 03:31:43;;;;;;;;;;;;;;;20.11;34.74;101060.03;5075576;28;1243;-57
2021/03/21 03:34:09;;;;;;;;;;;;;;;19.63;35.90;101022.06;5058697;28;1918;-45
2021/03/21 03:36:34;;;;;;;;;;;;;;;19.15;36.75;101036.47;5057735;28;875;-49
2021/03/21 03:39:00;;;;;;;;;;;;;;;20.01;35.20;101021.50;5064862;28;892;-50
2021/03/21 03:41:34;;;;;;;;;;;;;;;20.49;34.11;101004.13;5056104;28;791;-46
2021/03/21 03:44:06;;;;;;;;;;;;;;;19.95;35.44;101015.19;5057205;28;967;-46
2021/03/21 03:46:50;;;;;;;;;;;;;;;19.77;35.53;101013.13;5075870;28;815;-47
2021/03/21 03:49:28;;;;;;;;;;;;;;;19.21;36.76;101015.19;5076006;28;748;-51
2021/03/21 03:51:57;;;;;;;;;;;;;;;19.20;37.03;101021.00;5075444;28;743;-46
2021/03/21 03:54:29;;;;;;;;;;;;;;;20.21;34.77;101016.88;5076009;28;1918;-55
2021/03/21 03:56:56;;;;;;;;;;;;;;;20.04;35.02;101034.69;5062315;28;771;-45
2021/03/21 03:59:26;;;;;;;;;;;;;;;19.85;35.34;101015.28;5074757;28;943;-57
2021/03/21 04:02:02;;;;;;;;;;;;;;;19.54;35.95;101020.22;5060058;28;843;-50
2021/03/21 04:04:34;;;;;;;;;;;;;;;19.22;36.60;101038.06;5041833;28;834;-46
2021/03/21 04:07:18;;;;;;;;;;;;;;;19.92;35.41;101032.34;5042429;28;791;-56
2021/03/21 04:09:48;;;;;;;;;;;;;;;20.44;34.37;101031.78;5067086;28;1111;-53
2021/03/21 04:12:18;;;;;;;;;;;;;;;20.03;35.02;101029.47;5079260;28;739;-57
2021/03/21 04:14:45;;;;;;;;;;;;;;;19.86;35.43;101027.97;5054240;28;1914;-46
2021/03/21 04:17:25;;;;;;;;;;;;;;;19.26;36.68;101026.19;5059611;28;783;-50
2021/03/21 04:19:52;;;;;;;;;;;;;;;19.72;35.89;101055.38;5041282;28;775;-55
2021/03/21 04:22:22;;;;;;;;;;;;;;;20.46;34.29;101024.88;5041570;28;797;-57
2021/03/21 04:24:56;;;;;;;;;;;;;;;20.03;35.27;101054.31;5041917;28;816;-49
2021/03/21 04:27:26;;;;;;;;;;;;;;;19.93;35.27;101027.63;5058915;28;780;-60
2021/03/21 04:30:01;;;;;;;;;;;;;;;19.38;36.32;101056.16;5049827;28;972;-48
2021/03/21 04:32:31;;;;;;;;;;;;;;;19.79;35.59;101046.75;5079150;28;1095;-57
2021/03/21 04:34:56;;;;;;;;;;;;;;;20.60;33.99;101051.78;5060946;28;1913;-56
2021/03/21 04:37:23;;;;;;;;;;;;;;;20.04;35.19;101044.94;5061015;28;872;-60
2021/03/21 04:39:48;;;;;;;;;;;;;;;19.98;35.07;101046.91;5079275;28;870;-58
2021/03/21 04:42:13;;;;;;;;;;;;;;;19.63;35.94;101026.75;5061299;28;739;-58
2021/03/21 04:44:56;;;;;;;;;;;;;;;19.31;36.46;101023.41;5072563;28;1002;-57
2021/03/21 04:47:23;;;;;;;;;;;;;;;20.15;34.94;101011.41;5041584;28;815;-46
2021/03/21 04:49:48;;;;;;;;;;;;;;;20.03;34.95;101004.63;5041232;28;819;-59
2021/03/21 04:52:32;;;;;;;;;;;;;;;20.05;35.02;101014.28;5059447;28;782;-54
2021/03/21 04:54:57;;;;;;;;;;;;;;;19.52;35.90;101009.47;5058971;28;1976;-56
2021/03/21 04:57:25;;;;;;;;;;;;;;;19.00;37.26;101005.41;5040597;28;775;-60
2021/03/21 04:59:51;;;;;;;;;;;;;;;19.99;35.15;101001.63;5049362;28;963;-50
2021/03/21 05:02:19;;;;;;;;;;;;;;;20.39;34.22;101009.78;5060108;28;1011;-49
2021/03/21 05:04:46;;;;;;;;;;;;;;;19.82;35.62;101010.34;5060876;28;752;-64
2021/03/21 05:07:17;;;;;;;;;;;;;;;19.76;35.41;101011.47;5079043;28;825;-56
2021/03/21 05:09:46;;;;;;;;;;;;;;;19.26;36.25;101017.09;5054186;28;1104;-63
2021/03/21 05:12:12;;;;;;;;;;;;;;;19.65;35.90;100999.69;5040644;28;787;-49
2021/03/21 05:14:38;;;;;;;;;;;;;;;20.40;34.19;101017.75;5058522;28;1906;-51
2021/03/21 05:17:06;;;;;;;;;;;;;;;20.05;35.03;100996.88;5056860;28;841;-48
2021/03/21 05:19:54;;;;;;;;;;;;;;;19.97;34.96;101014.91;5069299;28;828;-56
2021/03/21 05:22:23;;;;;;;;;;;;;;;19.36;36.06;101013.44;5087694;28;1524;-52
2021/03/21 05:24:51;;;;;;;;;;;;;;;19.34;36.29;101022.00;5098710;28;859;-57
2021/03/21 05:27:43;;;;;;;;;;;;;;;20.20;34.84;101006.94;5080300;28;828;-47
2021/03/21 05:30:16;;;;;;;;;;;;;;;20.22;34.45;101015.78;5072675;28;1006;-51
2021/03/21 05:32:42;;;;;;;;;;;;;;;19.99;34.85;101016.25;5024145;28;1890;-50
2021/03/21 05:35:07;;;;;;;;;;;;;;;19.71;35.36;101023.38;5040233;28;783;-56
2021/03/21 05:37:52;;;;;;;;;;;;;;;19.02;36.75;101026.06;5058110;28;783;-55
2021/03/21 05:40:36;;;;;;;;;;;;;;;20.10;34.93;101032.72;5040437;28;815;-48
2021/03/21 05:43:20;;;;;;;;;;;;;;;20.38;34.47;101021.94;5057715;28;743;-51
2021/03/21 05:46:05;;;;;;;;;;;;;;;20.13;34.77;101035.72;5057583;28;939;-57
2021/03/21 05:48:39;;;;;;;;;;;;;;;19.62;35.49;101022.34;5057875;28;744;-48
2021/03/21 05:51:16;;;;;;;;;;;;;;;19.17;36.55;101036.19;5057782;28;787;-55
2021/03/21 05:53:50;;;;;;;;;;;;;;;20.02;35.09;101031.41;5040459;28;1917;-50
2021/03/21 05:56:34;;;;;;;;;;;;;;;20.60;33.94;101043.50;5057688;28;779;-57
2021/03/21 05:59:29;;;;;;;;;;;;;;;20.12;34.57;101047.88;5057958;28;951;-56
2021/03/21 06:02:01;;;;;;;;;;;;;;;19.86;35.35;101044.53;5044417;28;1360;-45
2021/03/21 06:04:45;;;;;;;;;;;;;;;19.21;36.38;101045.53;5057277;28;492;-62
2021/03/21 06:07:20;;;;;;;;;;;;;;;19.71;35.69;101037.16;5055813;28;883;-58
2021/03/21 06:10:04;;;;;;;;;;;;;;;20.52;34.04;101032.00;5049414;28;921;-54
2021/03/21 06:12:35;;;;;;;;;;;;;;;20.24;34.49;101032.84;5037042;28;756;-57
2021/03/21 06:15:12;;;;;;;;;;;;;;;20.12;34.61;101023.03;5046677;28;1903;-57
2021/03/21 06:17:38;;;;;;;;;;;;;;;19.64;35.80;101036.66;5038910;28;831;-47
2021/03/21 06:20:13;;;;;;;;;;;;;;;19.19;36.47;101025.69;5057206;28;728;-46
2021/03/21 06:23:01;;;;;;;;;;;;;;;19.60;35.96;101035.59;5057876;28;712;-59
2021/03/21 06:25:37;;;;;;;;;;;;;;;20.51;34.18;101044.16;5048791;28;1354;-54
2021/03/21 06:28:08;;;;;;;;;;;;;;;20.07;34.63;101039.63;5039386;28;791;-57
2021/03/21 06:30:43;;;;;;;;;;;;;;;19.97;34.95;101039.75;5039238;28;952;-58
2021/03/21 06:33:27;;;;;;;;;;;;;;;19.46;35.78;101036.25;5069420;28;1938;-47
2021/03/21 06:36:04;;;;;;;;;;;;;;;19.43;36.15;101053.38;5077155;28;756;-52
2021/03/21 06:38:29;;;;;;;;;;;;;;;20.42;34.09;101054.19;5058649;28;809;-55
2021/03/21 06:41:04;;;;;;;;;;;;;;;20.20;34.76;101056.63;5074462;28;928;-48
2021/03/21 06:43:42;;;;;;;;;;;;;;;20.03;34.81;101040.53;5039381;28;856;-48
2021/03/21 06:46:20;;;;;;;;;;;;;;;19.65;35.52;101046.59;5075437;28;948;-51
2021/03/21 06:48:45;;;;;;;;;;;;;;;19.09;36.98;101051.38;5076578;28;743;-56
2021/03/21 06:51:19;;;;;;;;;;;;;;;20.14;34.84;101048.41;5076965;28;760;-51
2021/03/21 06:53:45;;;;;;;;;;;;;;;20.35;34.47;101039.91;5076315;28;1913;-59
2021/03/21 06:56:33;;;;;;;;;;;;;;;20.06;34.85;101043.50;5076693;28;834;-57
2021/03/21 06:59:07;;;;;;;;;;;;;;;19.78;35.37;101042.34;5067088;28;1438;-56
2021/03/21 07:01:33;;;;;;;;;;;;;;;19.21;36.38;101042.78;5038985;28;784;-67
2021/03/21 07:04:17;;;;;;;;;;;;;;;20.01;35.01;101038.06;5056256;28;752;-51
2021/03/21 07:07:01;;;;;;;;;;;;;;;20.50;33.78;101030.63;5056550;28;826;-56
2021/03/21 07:09:26;;;;;;;;;;;;;;;20.21;34.51;101027.91;5061127;28;1100;-55
2021/03/21 07:11:58;;;;;;;;;;;;;;;20.02;34.94;101019.53;5076271;28;775;-46
2021/03/21 07:14:35;;;;;;;;;;;;;;;19.38;36.06;101016.75;5071353;28;1914;-51
2021/03/21 07:17:19;;;;;;;;;;;;;;;19.88;35.43;101011.13;5056575;28;791;-57
2021/03/21 07:20:04;;;;;;;;;;;;;;;20.64;33.65;101005.88;5056351;28;755;-62
2021/03/21 07:22:29;;;;;;;;;;;;;;;20.17;34.58;101005.59;5056468;28;772;-56
2021/03/21 07:24:58;;;;;;;;;;;;;;;19.97;34.86;101006.63;5056050;28;735;-59
2021/03/21 07:27:42;;;;;;;;;;;;;;;19.43;35.99;101005.66;5056370;28;768;-50
2021/03/21 07:30:12;;;;;;;;;;;;;;;19.66;35.60;100998.59;5049048;28;1031;-52
2021/03/21 07:32:40;;;;;;;;;;;;;;;20.42;34.04;100996.19;5075662;28;989;-53
2021/03/21 07:35:13;;;;;;;;;;;;;;;20.18;34.49;101002.53;5076241;28;1967;-68
2021/03/21 07:37:48;;;;;;;;;;;;;;;20.04;34.80;101001.56;5058793;28;807;-56
2021/03/21 07:40:32;;;;;;;;;;;;;;;19.64;35.46;101000.81;5075696;28;842;-57
2021/03/21 07:43:20;;;;;;;;;;;;;;;19.30;36.48;101012.66;5076584;28;947;-47
2021/03/21 07:45:59;;;;;;;;;;;;;;;20.25;34.62;100998.59;5041802;28;991;-60
2021/03/21 07:48:43;;;;;;;;;;;;;;;20.28;34.38;101001.59;5055729;28;771;-62
2021/03/21 07:51:16;;;;;;;;;;;;;;;20.03;34.80;101005.44;5056066;28;492;-56
2021/03/21 07:53:52;;;;;;;;;;;;;;;19.60;35.70;101002.50;5055787;28;1918;-55
2021/03/21 07:56:19;;;;;;;;;;;;;;;19.12;36.80;101008.63;5055791;28;867;-52
2021/03/21 07:58:44;;;;;;;;;;;;;;;19.94;35.02;101007.22;5037936;28;794;-60
2021/03/21 08:01:10;;;;;;;;;;;;;;;20.53;33.85;101021.75;5074724;28;1002;-56
2021/03/21 08:04:05;;;;;;;;;;;;;;;20.09;34.75;101008.97;5075634;28;843;-59
2021/03/21 08:06:41;;;;;;;;;;;;;;;19.72;35.37;101004.88;5049486;28;1395;-58
2021/03/21 08:09:14;;;;;;;;;;;;;;;19.39;35.89;101008.19;5073619;28;1104;-59
2021/03/21 08:11:41;;;;;;;;;;;;;;;19.78;35.32;100993.53;5055944;28;761;-52
2021/03/21 08:14:17;;;;;;;;;;;;;;;20.65;33.64;100996.44;5040112;28;1909;-53
2021/03/21 08:16:44;;;;;;;;;;;;;;;20.15;34.44;100985.75;5075893;28;949;-55
2021/03/21 08:19:11;;;;;;;;;;;;;;;20.15;34.79;100975.50;5057247;28;837;-46
2021/03/21 08:21:36;;;;;;;;;;;;;;;19.67;35.69;100973.47;5057862;28;771;-55
2021/03/21 08:24:08;;;;;;;;;;;;;;;19.14;36.80;100965.91;5075976;28;841;-48
2021/03/21 08:26:34;;;;;;;;;;;;;;;20.03;35.00;100980.59;5075928;28;865;-58
2021/03/21 08:29:20;;;;;;;;;;;;;;;20.47;34.00;100982.31;5074327;28;899;-67
2021/03/21 08:32:07;;;;;;;;;;;;;;;20.04;34.71;101004.34;5055271;28;1111;-45
2021/03/21 08:34:43;;;;;;;;;;;;;;;19.92;35.07;101009.41;5055901;28;1906;-50
2021/03/21 08:37:27;;;;;;;;;;;;;;;19.19;36.72;100991.78;5056040;28;721;-50
2021/03/21 08:39:58;;;;;;;;;;;;;;;20.14;34.65;101004.22;5055520;28;799;-56
2021/03/21 08:42:26;;;;;;;;;;;;;;;20.05;35.00;101002.38;5041102;28;736;-50
2021/03/21 08:44:51;;;;;;;;;;;;;;;19.90;35.06;101001.44;5067201;28;991;-47
2021/03/21 08:47:17;;;;;;;;;;;;;;;19.65;35.63;101010.75;5078955;28;822;-49
2021/03/21 08:49:47;;;;;;;;;;;;;;;19.39;36.09;101013.72;5060695;28;817;-49
2021/03/21 08:52:14;;;;;;;;;;;;;;;20.10;34.90;101008.69;5061605;28;791;-50
2021/03/21 08:54:41;;;;;;;;;;;;;;;20.24;34.29;101006.06;5061154;28;1898;-48
2021/03/21 08:57:07;;;;;;;;;;;;;;;20.02;34.72;101001.06;5078892;28;780;-63
2021/03/21 08:59:35;;;;;;;;;;;;;;;19.73;35.55;100995.50;5073162;28;1021;-53
2021/03/21 09:02:05;;;;;;;;;;;;;;;19.25;36.57;100991.47;5058664;28;756;-50
2021/03/21 09:04:31;;;;;;;;;;;;;;;19.90;35.09;100987.63;5058741;28;739;-46
2021/03/21 09:07:11;;;;;;;;;;;;;;;20.71;33.63;100989.78;5059606;28;806;-46
2021/03/21 09:09:39;;;;;;;;;;;;;;;20.31;34.37;100976.16;5064506;28;1104;-45
2021/03/21 09:12:19;;;;;;;;;;;;;;;20.06;34.75;100971.72;5061074;28;807;-47
2021/03/21 09:14:45;;;;;;;;;;;;;;;19.37;36.04;100971.78;5053397;28;1906;-52
2021/03/21 09:17:26;;;;;;;;;;;;;;;19.40;36.49;100971.22;5058144;28;566;-58
2021/03/21 09:19:58;;;;;;;;;;;;;;;20.24;34.54;100983.16;5058488;28;748;-54
2021/03/21 09:22:32;;;;;;;;;;;;;;;20.10;34.58;100981.06;5058434;28;817;-59
2021/03/21 09:25:08;;;;;;;;;;;;;;;20.06;34.82;100981.97;5058346;28;730;-55
2021/03/21 09:27:37;;;;;;;;;;;;;;;19.63;35.90;100977.94;5058204;28;851;-58
2021/03/21 09:30:08;;;;;;;;;;;;;;;19.20;36.59;100977.72;5068307;28;1002;-53
2021/03/21 09:32:34;;;;;;;;;;;;;;;20.01;35.03;100977.31;5050277;28;1124;-54
2021/03/21 09:34:59;;;;;;;;;;;;;;;20.72;33.90;100979.56;5058307;28;1913;-58
2021/03/21 09:37:25;;;;;;;;;;;;;;;20.12;35.00;100981.63;5058220;28;851;-59
2021/03/21 09:40:09;;;;;;;;;;;;;;;20.01;34.87;100985.59;5039718;28;819;-58
2021/03/21 09:42:34;;;;;;;;;;;;;;;19.39;36.28;100975.09;5058496;28;910;-47
2021/03/21 09:45:00;;;;;;;;;;;;;;;19.78;35.50;100971.44;5049374;28;956;-53
2021/03/21 09:47:28;;;;;;;;;;;;;;;20.47;34.26;100973.22;5077352;28;868;-55
2021/03/21 09:50:12;;;;;;;;;;;;;;;20.22;34.45;100968.84;5094626;28;893;-59
2021/03/21 09:52:56;;;;;;;;;;;;;;;20.09;34.80;100968.41;5096577;28;776;-54
2021/03/21 09:55:27;;;;;;;;;;;;;;;19.37;36.41;100971.78;5057759;28;756;-60
2021/03/21 09:57:53;;;;;;;;;;;;;;;19.62;35.75;100973.50;5039464;28;889;-55
2021/03/21 10:00:22;;;;;;;;;;;;;;;20.46;34.26;100974.34;5068937;28;963;-56
2021/03/21 10:02:50;;;;;;;;;;;;;;;21.02;33.15;100965.28;5060616;28;803;-54
2021/03/21 10:05:15;;;;;;;;;;;;;;;20.84;33.32;100964.16;5060045;28;995;-59
2021/03/21 10:07:59;;;;;;;;;;;;;;;20.57;33.93;100966.75;5077318;28;736;-56
2021/03/21 10:10:32;;;;;;;;;;;;;;;19.85;35.45;100965.59;5064853;28;1149;-62
2021/03/21 10:12:58;;;;;;;;;;;;;;;19.22;36.83;100969.97;5039538;28;1910;-59
2021/03/21 10:15:27;;;;;;;;;;;;;;;19.78;35.55;100974.22;5052103;28;959;-59
2021/03/21 10:17:57;;;;;;;;;;;;;;;20.69;33.89;100972.66;5060125;28;848;-50
2021/03/21 10:20:24;;;;;;;;;;;;;;;20.10;34.75;100972.78;5077237;28;732;-56
2021/03/21 10:22:50;;;;;;;;;;;;;;;20.07;34.83;100984.44;5059334;28;779;-63
2021/03/21 10:25:16;;;;;;;;;;;;;;;19.40;36.32;100984.19;5076752;28;836;-61
2021/03/21 10:27:45;;;;;;;;;;;;;;;19.34;36.57;100971.56;5077091;28;829;-64
2021/03/21 10:30:12;;;;;;;;;;;;;;;20.23;34.80;100968.53;5066007;28;962;-56
2021/03/21 10:32:39;;;;;;;;;;;;;;;20.24;34.87;100972.09;5038981;28;977;-56
2021/03/21 10:35:05;;;;;;;;;;;;;;;20.06;34.89;100970.91;5056622;28;1983;-62
2021/03/21 10:37:58;;;;;;;;;;;;;;;19.72;35.77;100967.09;5038652;28;880;-47
2021/03/21 10:40:24;;;;;;;;;;;;;;;19.18;36.81;100957.06;5033729;28;1275;-51
2021/03/21 10:42:50;;;;;;;;;;;;;;;19.89;35.45;100946.53;5056725;28;740;-65
2021/03/21 10:45:39;;;;;;;;;;;;;;;20.64;34.09;100943.16;5050065;28;1006;-54
2021/03/21 10:48:10;;;;;;;;;;;;;;;20.06;35.14;100944.13;5076827;28;1115;-61
2021/03/21 10:50:45;;;;;;;;;;;;;;;19.79;35.52;100940.00;5076777;28;788;-47
2021/03/21 10:53:26;;;;;;;;;;;;;;;19.42;36.33;100932.31;5076539;28;1973;-47
2021/03/21 10:56:05;;;;;;;;;;;;;;;19.05;37.18;100920.75;5076772;28;823;-58
2021/03/21 10:58:36;;;;;;;;;;;;;;;20.17;34.83;100912.56;5062430;28;839;-45
2021/03/21 11:01:17;;;;;;;;;;;;;;;20.47;34.33;100907.75;5073999;28;944;-51
2021/03/21 11:03:43;;;;;;;;;;;;;;;20.07;35.06;100896.09;5076099;28;838;-58
2021/03/21 11:06:15;;;;;;;;;;;;;;;19.64;35.84;100907.00;5076578;28;735;-54
2021/03/21 11:08:40;;;;;;;;;;;;;;;19.19;36.85;100898.06;5076443;28;783;-54
2021/03/21 11:11:19;;;;;;;;;;;;;;;19.91;35.67;100891.84;5058074;28;1123;-63
2021/03/21 11:13:44;;;;;;;;;;;;;;;20.38;34.50;100884.66;5055836;28;1991;-50
2021/03/21 11:16:22;;;;;;;;;;;;;;;20.15;35.05;100897.38;5038491;28;956;-56
2021/03/21 11:18:49;;;;;;;;;;;;;;;19.87;35.68;100885.31;5038286;28;792;-56
2021/03/21 11:21:15;;;;;;;;;;;;;;;19.32;36.53;100880.84;5056222;28;828;-61
2021/03/21 11:23:46;;;;;;;;;;;;;;;19.39;36.63;100880.50;5038793;28;1199;-60
2021/03/21 11:26:18;;;;;;;;;;;;;;;20.37;34.42;100876.66;5056273;28;803;-47
2021/03/21 11:28:45;;;;;;;;;;;;;;;20.17;35.11;100871.13;5056093;28;813;-60
2021/03/21 11:31:27;;;;;;;;;;;;;;;19.92;35.26;100871.44;5063251;28;888;-58
2021/03/21 11:33:52;;;;;;;;;;;;;;;19.56;36.24;100864.34;5055843;28;1967;-59
2021/03/21 11:36:21;;;;;;;;;;;;;;;19.30;36.68;100864.59;5055843;28;756;-55
2021/03/21 11:38:46;;;;;;;;;;;;;;;19.79;35.79;100861.91;5037191;28;2066;-60
2021/03/21 11:41:41;;;;;;;;;;;;;;;20.44;34.53;100855.88;5038067;28;784;-50
2021/03/21 11:44:25;;;;;;;;;;;;;;;20.03;35.29;100855.59;5040372;28;1342;-56
2021/03/21 11:46:51;;;;;;;;;;;;;;;19.75;35.69;100850.63;5076092;28;806;-58
2021/03/21 11:49:16;;;;;;;;;;;;;;;19.09;36.89;100855.69;5058448;28;774;-58
2021/03/21 11:51:42;;;;;;;;;;;;;;;19.69;35.71;100849.03;5057568;28;1012;-59
2021/03/21 11:54:13;;;;;;;;;;;;;;;20.48;34.38;100853.31;5075675;28;1909;-57
2021/03/21 11:56:42;;;;;;;;;;;;;;;20.04;35.06;100865.50;5058094;28;784;-62
2021/03/21 11:59:17;;;;;;;;;;;;;;;19.85;35.37;100855.22;5073287;28;1002;-58
2021/03/21 12:01:52;;;;;;;;;;;;;;;19.31;36.45;100844.19;5055257;28;826;-55
2021/03/21 12:04:19;;;;;;;;;;;;;;;19.67;35.85;100843.81;5055981;28;804;-58
2021/03/21 12:06:47;;;;;;;;;;;;;;;20.45;34.51;100843.69;5037875;28;772;-54
2021/03/21 12:09:20;;;;;;;;;;;;;;;20.10;35.17;100843.03;5058425;28;1088;-63
2021/03/21 12:11:46;;;;;;;;;;;;;;;20.02;35.04;100840.97;5075933;28;902;-58
2021/03/21 12:14:25;;;;;;;;;;;;;;;19.51;35.99;100841.53;5071531;28;1913;-60
2021/03/21 12:16:51;;;;;;;;;;;;;;;19.10;37.04;100838.03;5058365;28;787;-49
2021/03/21 12:19:32;;;;;;;;;;;;;;;19.75;35.87;100836.00;5042351;28;792;-55
2021/03/21 12:21:58;;;;;;;;;;;;;;;20.45;34.40;100827.09;5059050;28;791;-61
2021/03/21 12:24:24;;;;;;;;;;;;;;;19.86;35.43;100832.03;5041785;28;807;-53
2021/03/21 12:26:51;;;;;;;;;;;;;;;19.82;35.62;100834.59;5059503;28;788;-48
2021/03/21 12:29:23;;;;;;;;;;;;;;;19.43;36.12;100826.41;5062382;28;952;-64
2021/03/21 12:31:52;;;;;;;;;;;;;;;19.30;36.62;100828.75;5079132;28;965;-49
2021/03/21 12:34:24;;;;;;;;;;;;;;;20.17;34.96;100815.91;5078887;28;1981;-61
2021/03/21 12:37:03;;;;;;;;;;;;;;;20.29;34.57;100811.91;5079342;28;771;-59
2021/03/21 12:39:30;;;;;;;;;;;;;;;19.98;35.20;100812.31;5079416;28;756;-50
2021/03/21 12:41:56;;;;;;;;;;;;;;;19.77;35.57;100806.19;5079607;28;764;-54
2021/03/21 12:44:22;;;;;;;;;;;;;;;19.43;36.21;100805.19;5074712;28;970;-52
2021/03/21 12:46:48;;;;;;;;;;;;;;;19.55;36.14;100799.25;5059268;28;747;-59
2021/03/21 12:49:46;;;;;;;;;;;;;;;20.28;34.59;100800.00;5059836;28;704;-59
2021/03/21 12:52:38;;;;;;;;;;;;;;;20.00;35.44;100797.06;5024886;28;1141;-60
2021/03/21 12:55:03;;;;;;;;;;;;;;;20.02;35.18;100793.19;5051969;28;1989;-60
2021/03/21 12:57:29;;;;;;;;;;;;;;;19.48;35.99;100787.75;5058980;28;780;-58
2021/03/21 12:59:54;;;;;;;;;;;;;;;19.09;37.11;100777.69;5067376;28;964;-58
2021/03/21 13:02:21;;;;;;;;;;;;;;;20.15;34.87;100776.72;5078961;28;799;-58
2021/03/21 13:04:47;;;;;;;;;;;;;;;20.27;34.41;100773.53;5078982;28;771;-54
2021/03/21 13:07:12;;;;;;;;;;;;;;;19.95;35.05;100777.00;5060286;28;1118;-59
2021/03/21 13:09:41;;;;;;;;;;;;;;;19.56;35.94;100780.78;5072415;28;1115;-68
2021/03/21 13:12:07;;;;;;;;;;;;;;;19.19;36.71;100779.53;5058892;28;787;-61
2021/03/21 13:14:32;;;;;;;;;;;;;;;19.54;36.28;100774.75;5063484;28;1914;-61
2021/03/21 13:16:58;;;;;;;;;;;;;;;20.39;34.35;100773.06;5078620;28;759;-59